AWQ666 WAMM-WAPP
Flight info
| Callsign | AWQ666 |
|---|---|
| Flight time | 1h 2m |
| Altitude | 35000 |
| Route | WAMM/36 N0458F350 RUMB1J RUMBO W55 BELBA BELB1H WAPP/04 |
| Aircraft | A320/M-SDE2E3FGHIRWXY/LB1 |
Departure
| Time | 2026-04-29 03:12 |
|---|---|
| Airport | Sam Ratulangi International Airport (WAMM) |
Arrival
| Time | 2026-04-29 04:14 |
|---|---|
| Airport | Pattimura International Airport (WAPP) |
| Time | Latitude | Longitude | Altitude | Speed | Heading |
|---|---|---|---|---|---|
| 2026-04-29 02:38 | 1.54269 | 124.92341 | 337 ft | 0 kts | 310° |
| 2026-04-29 03:02 | 1.54253 | 124.92360 | 332 ft | 4 kts | 308° |
| 2026-04-29 03:03 | 1.54237 | 124.92382 | 334 ft | 4 kts | 301° |
| 2026-04-29 03:03 | 1.54227 | 124.92405 | 332 ft | 4 kts | 263° |
| 2026-04-29 03:03 | 1.54230 | 124.92415 | 334 ft | 0 kts | 181° |
| 2026-04-29 03:07 | 1.54228 | 124.92415 | 336 ft | 2 kts | 181° |
| 2026-04-29 03:07 | 1.54183 | 124.92414 | 335 ft | 9 kts | 181° |
| 2026-04-29 03:08 | 1.54127 | 124.92413 | 335 ft | 7 kts | 181° |
| 2026-04-29 03:08 | 1.54083 | 124.92412 | 336 ft | 6 kts | 181° |
| 2026-04-29 03:08 | 1.54050 | 124.92411 | 336 ft | 4 kts | 181° |
| 2026-04-29 03:08 | 1.54026 | 124.92411 | 336 ft | 3 kts | 181° |
| 2026-04-29 03:09 | 1.54003 | 124.92411 | 336 ft | 7 kts | 178° |
| 2026-04-29 03:09 | 1.53943 | 124.92431 | 334 ft | 9 kts | 179° |
| 2026-04-29 03:09 | 1.53877 | 124.92432 | 334 ft | 9 kts | 179° |
| 2026-04-29 03:09 | 1.53823 | 124.92433 | 336 ft | 7 kts | 180° |
| 2026-04-29 03:10 | 1.53765 | 124.92435 | 334 ft | 9 kts | 158° |
| 2026-04-29 03:10 | 1.53743 | 124.92510 | 335 ft | 12 kts | 92° |
| 2026-04-29 03:10 | 1.53744 | 124.92588 | 334 ft | 9 kts | 65° |
| 2026-04-29 03:10 | 1.53785 | 124.92594 | 337 ft | 5 kts | 2° |
| 2026-04-29 03:11 | 1.53813 | 124.92595 | 337 ft | 5 kts | 2° |
| 2026-04-29 03:11 | 1.54042 | 124.92602 | 337 ft | 70 kts | 2° |
| 2026-04-29 03:11 | 1.54751 | 124.92625 | 337 ft | 131 kts | 2° |
| 2026-04-29 03:11 | 1.55842 | 124.92665 | 349 ft | 180 kts | 3° |
| 2026-04-29 03:12 | 1.57122 | 124.92725 | 881 ft | 186 kts | 359° |
| 2026-04-29 03:12 | 1.58425 | 124.92552 | 1428 ft | 196 kts | 347° |
| 2026-04-29 03:12 | 1.59811 | 124.92210 | 1803 ft | 215 kts | 345° |
| 2026-04-29 03:12 | 1.61332 | 124.91792 | 2122 ft | 239 kts | 343° |
| 2026-04-29 03:13 | 1.63008 | 124.91316 | 2608 ft | 259 kts | 343° |
| 2026-04-29 03:13 | 1.64807 | 124.91038 | 3406 ft | 266 kts | 3° |
| 2026-04-29 03:13 | 1.66597 | 124.91525 | 4215 ft | 271 kts | 30° |
| 2026-04-29 03:13 | 1.67985 | 124.92787 | 5019 ft | 274 kts | 57° |
| 2026-04-29 03:14 | 1.68659 | 124.94561 | 5828 ft | 277 kts | 84° |
| 2026-04-29 03:14 | 1.68452 | 124.96461 | 6606 ft | 279 kts | 112° |
| 2026-04-29 03:14 | 1.67388 | 124.98065 | 7378 ft | 281 kts | 139° |
| 2026-04-29 03:14 | 1.65735 | 124.99110 | 8164 ft | 283 kts | 153° |
| 2026-04-29 03:15 | 1.63984 | 125.00032 | 8958 ft | 286 kts | 153° |
| 2026-04-29 03:15 | 1.62234 | 125.00947 | 9702 ft | 289 kts | 153° |
| 2026-04-29 03:15 | 1.60438 | 125.01885 | 10347 ft | 297 kts | 153° |
| 2026-04-29 03:15 | 1.58532 | 125.02885 | 10548 ft | 321 kts | 153° |
| 2026-04-29 03:16 | 1.56485 | 125.03961 | 10703 ft | 344 kts | 153° |
| 2026-04-29 03:16 | 1.54307 | 125.05109 | 10935 ft | 362 kts | 152° |
| 2026-04-29 03:16 | 1.52061 | 125.06298 | 11509 ft | 368 kts | 152° |
| 2026-04-29 03:16 | 1.49793 | 125.07502 | 12144 ft | 372 kts | 152° |
| 2026-04-29 03:17 | 1.47494 | 125.08723 | 12781 ft | 375 kts | 152° |
| 2026-04-29 03:17 | 1.45178 | 125.09949 | 13409 ft | 379 kts | 152° |
| 2026-04-29 03:17 | 1.42839 | 125.11184 | 14025 ft | 382 kts | 152° |
| 2026-04-29 03:17 | 1.40474 | 125.12433 | 14629 ft | 386 kts | 152° |
| 2026-04-29 03:18 | 1.38092 | 125.13692 | 15201 ft | 389 kts | 152° |
| 2026-04-29 03:18 | 1.35690 | 125.14960 | 15769 ft | 392 kts | 152° |
| 2026-04-29 03:18 | 1.33270 | 125.16238 | 16319 ft | 395 kts | 152° |
| 2026-04-29 03:18 | 1.30830 | 125.17527 | 16858 ft | 398 kts | 152° |
| 2026-04-29 03:19 | 1.28368 | 125.18827 | 17395 ft | 402 kts | 152° |
| 2026-04-29 03:19 | 1.25886 | 125.20137 | 17915 ft | 405 kts | 152° |
| 2026-04-29 03:19 | 1.23391 | 125.21458 | 18431 ft | 408 kts | 152° |
| 2026-04-29 03:19 | 1.20874 | 125.22791 | 18930 ft | 411 kts | 152° |
| 2026-04-29 03:20 | 1.18337 | 125.24133 | 19410 ft | 414 kts | 152° |
| 2026-04-29 03:20 | 1.15784 | 125.25481 | 19883 ft | 417 kts | 152° |
| 2026-04-29 03:20 | 1.13208 | 125.26838 | 20332 ft | 420 kts | 152° |
| 2026-04-29 03:20 | 1.10622 | 125.28204 | 20762 ft | 422 kts | 152° |
| 2026-04-29 03:21 | 1.08014 | 125.29585 | 21180 ft | 425 kts | 152° |
| 2026-04-29 03:21 | 1.05392 | 125.30972 | 21590 ft | 428 kts | 152° |
| 2026-04-29 03:21 | 1.02758 | 125.32365 | 21988 ft | 430 kts | 152° |
| 2026-04-29 03:21 | 1.00104 | 125.33769 | 22363 ft | 433 kts | 152° |
| 2026-04-29 03:22 | 0.97436 | 125.35182 | 22731 ft | 435 kts | 152° |
| 2026-04-29 03:22 | 0.94756 | 125.36602 | 23083 ft | 437 kts | 152° |
| 2026-04-29 03:22 | 0.92062 | 125.38027 | 23424 ft | 439 kts | 152° |
| 2026-04-29 03:22 | 0.89348 | 125.39461 | 23761 ft | 442 kts | 152° |
| 2026-04-29 03:23 | 0.86655 | 125.40883 | 24091 ft | 444 kts | 152° |
| 2026-04-29 03:23 | 0.83885 | 125.42346 | 24412 ft | 446 kts | 152° |
| 2026-04-29 03:23 | 0.81172 | 125.43779 | 24715 ft | 448 kts | 152° |
| 2026-04-29 03:23 | 0.78409 | 125.45238 | 25017 ft | 450 kts | 152° |
| 2026-04-29 03:24 | 0.75634 | 125.46702 | 25307 ft | 452 kts | 152° |
| 2026-04-29 03:24 | 0.72848 | 125.48172 | 25590 ft | 454 kts | 152° |
| 2026-04-29 03:24 | 0.70053 | 125.49651 | 25869 ft | 456 kts | 152° |
| 2026-04-29 03:24 | 0.67245 | 125.51137 | 26137 ft | 457 kts | 152° |
| 2026-04-29 03:25 | 0.64423 | 125.52630 | 26396 ft | 459 kts | 152° |
| 2026-04-29 03:25 | 0.61595 | 125.54123 | 26645 ft | 461 kts | 152° |
| 2026-04-29 03:25 | 0.58753 | 125.55624 | 26885 ft | 463 kts | 152° |
| 2026-04-29 03:25 | 0.55901 | 125.57129 | 27108 ft | 464 kts | 152° |
| 2026-04-29 03:26 | 0.53039 | 125.58641 | 27335 ft | 466 kts | 152° |
| 2026-04-29 03:26 | 0.50173 | 125.60156 | 27547 ft | 467 kts | 152° |
| 2026-04-29 03:26 | 0.47296 | 125.61679 | 27750 ft | 469 kts | 152° |
| 2026-04-29 03:26 | 0.44409 | 125.63206 | 27958 ft | 470 kts | 152° |
| 2026-04-29 03:27 | 0.41520 | 125.64732 | 28244 ft | 469 kts | 152° |
| 2026-04-29 03:27 | 0.38636 | 125.66256 | 28525 ft | 468 kts | 152° |
| 2026-04-29 03:27 | 0.35759 | 125.67776 | 28801 ft | 468 kts | 152° |
| 2026-04-29 03:27 | 0.32882 | 125.69295 | 29072 ft | 467 kts | 152° |
| 2026-04-29 03:28 | 0.30011 | 125.70809 | 29347 ft | 466 kts | 152° |
| 2026-04-29 03:28 | 0.27146 | 125.72322 | 29609 ft | 466 kts | 152° |
| 2026-04-29 03:28 | 0.24280 | 125.73835 | 29876 ft | 465 kts | 152° |
| 2026-04-29 03:28 | 0.21419 | 125.75345 | 30145 ft | 465 kts | 152° |
| 2026-04-29 03:29 | 0.18562 | 125.76854 | 30411 ft | 464 kts | 152° |
| 2026-04-29 03:29 | 0.15708 | 125.78366 | 30677 ft | 464 kts | 152° |
| 2026-04-29 03:29 | 0.12895 | 125.79858 | 30932 ft | 463 kts | 152° |
| 2026-04-29 03:29 | 0.10051 | 125.81362 | 31191 ft | 463 kts | 152° |
| 2026-04-29 03:30 | 0.07205 | 125.82864 | 31454 ft | 462 kts | 152° |
| 2026-04-29 03:30 | 0.05285 | 125.83876 | 31621 ft | 462 kts | 152° |
| 2026-04-29 03:30 | 0.02444 | 125.85377 | 31877 ft | 461 kts | 152° |
| 2026-04-29 03:30 | -0.00352 | 125.86854 | 32125 ft | 461 kts | 152° |
| 2026-04-29 03:31 | -0.05993 | 125.89889 | 32612 ft | 460 kts | 148° |
| 2026-04-29 03:31 | -0.08639 | 125.91675 | 32852 ft | 460 kts | 146° |
| 2026-04-29 03:31 | -0.11276 | 125.93482 | 33087 ft | 459 kts | 146° |
| 2026-04-29 03:32 | -0.13912 | 125.95283 | 33323 ft | 459 kts | 146° |
| 2026-04-29 03:32 | -0.16548 | 125.97084 | 33555 ft | 458 kts | 146° |
| 2026-04-29 03:32 | -0.19179 | 125.98881 | 33781 ft | 458 kts | 146° |
| 2026-04-29 03:32 | -0.21809 | 126.00673 | 34008 ft | 457 kts | 146° |
| 2026-04-29 03:33 | -0.24438 | 126.02465 | 34238 ft | 457 kts | 146° |
| 2026-04-29 03:33 | -0.27064 | 126.04254 | 34467 ft | 456 kts | 146° |
| 2026-04-29 03:33 | -0.29686 | 126.06039 | 34692 ft | 456 kts | 146° |
| 2026-04-29 03:33 | -0.32302 | 126.07823 | 34903 ft | 455 kts | 146° |
| 2026-04-29 03:34 | -0.34922 | 126.09611 | 35007 ft | 457 kts | 146° |
| 2026-04-29 03:34 | -0.37547 | 126.11408 | 35011 ft | 458 kts | 146° |
| 2026-04-29 03:34 | -0.42815 | 126.15009 | 35012 ft | 458 kts | 146° |
| 2026-04-29 03:35 | -0.48049 | 126.18584 | 35007 ft | 458 kts | 146° |
| 2026-04-29 03:35 | -0.53314 | 126.22177 | 35011 ft | 458 kts | 146° |
| 2026-04-29 03:36 | -0.58586 | 126.25770 | 35007 ft | 458 kts | 146° |
| 2026-04-29 03:36 | -0.63848 | 126.29365 | 35012 ft | 458 kts | 146° |
| 2026-04-29 03:37 | -0.69113 | 126.32955 | 35012 ft | 458 kts | 146° |
| 2026-04-29 03:37 | -0.73015 | 126.35620 | 35011 ft | 458 kts | 146° |
| 2026-04-29 03:38 | -0.78363 | 126.39264 | 35009 ft | 458 kts | 146° |
| 2026-04-29 03:38 | -0.83636 | 126.42862 | 35006 ft | 458 kts | 146° |
| 2026-04-29 03:39 | -0.88870 | 126.46432 | 35006 ft | 459 kts | 146° |
| 2026-04-29 03:39 | -0.94236 | 126.49877 | 35012 ft | 459 kts | 148° |
| 2026-04-29 03:40 | -0.99676 | 126.53222 | 35010 ft | 459 kts | 149° |
| 2026-04-29 03:40 | -1.05099 | 126.56582 | 35012 ft | 458 kts | 148° |
| 2026-04-29 03:41 | -1.10499 | 126.59967 | 35011 ft | 458 kts | 148° |
| 2026-04-29 03:41 | -1.15891 | 126.63371 | 35007 ft | 458 kts | 148° |
| 2026-04-29 03:42 | -1.21286 | 126.66774 | 35007 ft | 459 kts | 148° |
| 2026-04-29 03:42 | -1.26690 | 126.70168 | 35008 ft | 459 kts | 148° |
| 2026-04-29 03:43 | -1.32105 | 126.73563 | 35015 ft | 459 kts | 148° |
| 2026-04-29 03:43 | -1.37475 | 126.76933 | 35011 ft | 459 kts | 148° |
| 2026-04-29 03:44 | -1.42878 | 126.80332 | 35012 ft | 459 kts | 148° |
| 2026-04-29 03:44 | -1.48272 | 126.83730 | 35015 ft | 458 kts | 148° |
| 2026-04-29 03:45 | -1.53668 | 126.87125 | 35007 ft | 458 kts | 148° |
| 2026-04-29 03:45 | -1.58983 | 126.90461 | 35009 ft | 458 kts | 148° |
| 2026-04-29 03:46 | -1.64197 | 126.93731 | 35006 ft | 459 kts | 148° |
| 2026-04-29 03:46 | -1.69599 | 126.97130 | 35007 ft | 459 kts | 148° |
| 2026-04-29 03:47 | -1.75010 | 127.00539 | 35012 ft | 459 kts | 148° |
| 2026-04-29 03:47 | -1.80408 | 127.03934 | 35013 ft | 459 kts | 148° |
| 2026-04-29 03:48 | -1.85819 | 127.07336 | 35016 ft | 459 kts | 148° |
| 2026-04-29 03:48 | -1.91223 | 127.10737 | 35010 ft | 459 kts | 148° |
| 2026-04-29 03:49 | -1.96628 | 127.14134 | 35009 ft | 459 kts | 148° |
| 2026-04-29 03:49 | -2.02024 | 127.17533 | 35014 ft | 459 kts | 148° |
| 2026-04-29 03:50 | -2.07426 | 127.20936 | 35009 ft | 459 kts | 148° |
| 2026-04-29 03:50 | -2.12840 | 127.24340 | 35011 ft | 459 kts | 148° |
| 2026-04-29 03:51 | -2.18249 | 127.27735 | 35013 ft | 459 kts | 148° |
| 2026-04-29 03:51 | -2.24038 | 127.30385 | 35015 ft | 458 kts | 165° |
| 2026-04-29 03:52 | -2.30277 | 127.31441 | 35014 ft | 458 kts | 172° |
| 2026-04-29 03:52 | -2.36590 | 127.32301 | 35013 ft | 458 kts | 172° |
| 2026-04-29 03:53 | -2.42906 | 127.33171 | 35013 ft | 458 kts | 172° |
| 2026-04-29 03:53 | -2.49221 | 127.34040 | 35016 ft | 458 kts | 172° |
| 2026-04-29 03:54 | -2.55531 | 127.34918 | 34956 ft | 457 kts | 172° |
| 2026-04-29 03:54 | -2.58677 | 127.35358 | 34259 ft | 456 kts | 172° |
| 2026-04-29 03:54 | -2.61824 | 127.35798 | 33427 ft | 458 kts | 172° |
| 2026-04-29 03:55 | -2.64981 | 127.36237 | 32579 ft | 459 kts | 172° |
| 2026-04-29 03:55 | -2.68158 | 127.36678 | 31695 ft | 461 kts | 172° |
| 2026-04-29 03:55 | -2.71340 | 127.37119 | 30790 ft | 463 kts | 172° |
| 2026-04-29 03:55 | -2.74538 | 127.37563 | 29853 ft | 464 kts | 172° |
| 2026-04-29 03:56 | -2.77744 | 127.38010 | 28875 ft | 466 kts | 172° |
| 2026-04-29 03:56 | -2.80966 | 127.38458 | 27853 ft | 468 kts | 172° |
| 2026-04-29 03:56 | -2.84199 | 127.38906 | 26783 ft | 470 kts | 172° |
| 2026-04-29 03:56 | -2.87393 | 127.39346 | 25729 ft | 471 kts | 172° |
| 2026-04-29 03:57 | -2.90631 | 127.39795 | 24971 ft | 465 kts | 172° |
| 2026-04-29 03:57 | -2.93812 | 127.40238 | 24205 ft | 460 kts | 172° |
| 2026-04-29 03:57 | -2.96967 | 127.40677 | 23453 ft | 455 kts | 172° |
| 2026-04-29 03:57 | -3.00082 | 127.41108 | 22735 ft | 450 kts | 172° |
| 2026-04-29 03:58 | -3.03167 | 127.41534 | 22041 ft | 445 kts | 172° |
| 2026-04-29 03:58 | -3.06219 | 127.41957 | 21370 ft | 441 kts | 172° |
| 2026-04-29 03:58 | -3.09248 | 127.42373 | 20707 ft | 436 kts | 172° |
| 2026-04-29 03:58 | -3.12246 | 127.42781 | 20059 ft | 432 kts | 172° |
| 2026-04-29 03:59 | -3.15208 | 127.43181 | 19356 ft | 428 kts | 173° |
| 2026-04-29 03:59 | -3.18153 | 127.43576 | 18623 ft | 425 kts | 173° |
| 2026-04-29 03:59 | -3.21074 | 127.43972 | 17877 ft | 422 kts | 172° |
| 2026-04-29 03:59 | -3.23965 | 127.44369 | 17332 ft | 416 kts | 172° |
| 2026-04-29 04:00 | -3.26771 | 127.44752 | 16921 ft | 409 kts | 172° |
| 2026-04-29 04:00 | -3.29575 | 127.45135 | 16378 ft | 405 kts | 172° |
| 2026-04-29 04:00 | -3.32355 | 127.45513 | 15845 ft | 402 kts | 172° |
| 2026-04-29 04:00 | -3.35103 | 127.45956 | 15318 ft | 398 kts | 167° |
| 2026-04-29 04:01 | -3.37618 | 127.46801 | 14805 ft | 395 kts | 156° |
| 2026-04-29 04:01 | -3.40007 | 127.48137 | 14291 ft | 392 kts | 145° |
| 2026-04-29 04:01 | -3.42092 | 127.49872 | 13716 ft | 389 kts | 135° |
| 2026-04-29 04:01 | -3.43998 | 127.51777 | 13171 ft | 386 kts | 135° |
| 2026-04-29 04:02 | -3.45896 | 127.53667 | 12581 ft | 383 kts | 135° |
| 2026-04-29 04:02 | -3.47783 | 127.55540 | 11975 ft | 381 kts | 135° |
| 2026-04-29 04:02 | -3.49662 | 127.57402 | 11366 ft | 378 kts | 135° |
| 2026-04-29 04:02 | -3.51507 | 127.59232 | 11124 ft | 365 kts | 135° |
| 2026-04-29 04:03 | -3.53274 | 127.60987 | 10995 ft | 350 kts | 135° |
| 2026-04-29 04:03 | -3.54967 | 127.62670 | 10867 ft | 336 kts | 135° |
| 2026-04-29 04:03 | -3.56596 | 127.64287 | 10742 ft | 323 kts | 135° |
| 2026-04-29 04:03 | -3.58165 | 127.65846 | 10614 ft | 312 kts | 136° |
| 2026-04-29 04:04 | -3.59678 | 127.67348 | 10481 ft | 301 kts | 135° |
| 2026-04-29 04:04 | -3.61146 | 127.68812 | 10254 ft | 294 kts | 135° |
| 2026-04-29 04:04 | -3.62627 | 127.70211 | 10189 ft | 293 kts | 142° |
| 2026-04-29 04:04 | -3.64235 | 127.71459 | 10111 ft | 292 kts | 143° |
| 2026-04-29 04:05 | -3.65235 | 127.72234 | 9923 ft | 294 kts | 143° |
| 2026-04-29 04:05 | -3.66854 | 127.73492 | 9531 ft | 287 kts | 142° |
| 2026-04-29 04:05 | -3.68425 | 127.74715 | 8898 ft | 285 kts | 142° |
| 2026-04-29 04:05 | -3.69985 | 127.75928 | 8267 ft | 282 kts | 142° |
| 2026-04-29 04:06 | -3.71528 | 127.77129 | 7631 ft | 280 kts | 142° |
| 2026-04-29 04:06 | -3.73057 | 127.78321 | 6989 ft | 277 kts | 142° |
| 2026-04-29 04:06 | -3.74573 | 127.79501 | 6351 ft | 275 kts | 142° |
| 2026-04-29 04:06 | -3.76075 | 127.80669 | 5715 ft | 272 kts | 142° |
| 2026-04-29 04:07 | -3.77561 | 127.81826 | 5075 ft | 269 kts | 142° |
| 2026-04-29 04:07 | -3.79024 | 127.82967 | 4789 ft | 267 kts | 142° |
| 2026-04-29 04:07 | -3.80509 | 127.84123 | 4454 ft | 273 kts | 143° |
| 2026-04-29 04:07 | -3.81976 | 127.85262 | 3962 ft | 267 kts | 143° |
| 2026-04-29 04:08 | -3.83399 | 127.86367 | 3798 ft | 249 kts | 143° |
| 2026-04-29 04:08 | -3.84730 | 127.87401 | 3729 ft | 236 kts | 143° |
| 2026-04-29 04:08 | -3.86015 | 127.88402 | 3654 ft | 231 kts | 143° |
| 2026-04-29 04:08 | -3.87185 | 127.89389 | 3512 ft | 212 kts | 129° |
| 2026-04-29 04:09 | -3.87712 | 127.90700 | 3344 ft | 204 kts | 91° |
| 2026-04-29 04:09 | -3.87355 | 127.92060 | 3303 ft | 206 kts | 54° |
| 2026-04-29 04:09 | -3.86376 | 127.93112 | 3252 ft | 208 kts | 47° |
| 2026-04-29 04:09 | -3.85448 | 127.94221 | 3168 ft | 208 kts | 52° |
| 2026-04-29 04:10 | -3.84528 | 127.95337 | 3045 ft | 208 kts | 48° |
| 2026-04-29 04:10 | -3.83549 | 127.96392 | 2824 ft | 203 kts | 46° |
| 2026-04-29 04:10 | -3.82596 | 127.97377 | 2619 ft | 190 kts | 45° |
| 2026-04-29 04:10 | -3.81705 | 127.98281 | 2466 ft | 175 kts | 45° |
| 2026-04-29 04:11 | -3.80871 | 127.99118 | 2237 ft | 165 kts | 45° |
| 2026-04-29 04:11 | -3.80079 | 127.99912 | 2044 ft | 159 kts | 45° |
| 2026-04-29 04:11 | -3.79304 | 128.00684 | 1903 ft | 156 kts | 44° |
| 2026-04-29 04:11 | -3.78527 | 128.01440 | 1759 ft | 155 kts | 45° |
| 2026-04-29 04:12 | -3.77756 | 128.02198 | 1568 ft | 155 kts | 44° |
| 2026-04-29 04:12 | -3.77008 | 128.02952 | 1367 ft | 154 kts | 46° |
| 2026-04-29 04:12 | -3.76264 | 128.03723 | 1204 ft | 154 kts | 46° |
| 2026-04-29 04:12 | -3.75516 | 128.04490 | 1066 ft | 154 kts | 45° |
| 2026-04-29 04:13 | -3.74754 | 128.05238 | 891 ft | 154 kts | 44° |
| 2026-04-29 04:13 | -3.74001 | 128.05994 | 681 ft | 153 kts | 45° |
| 2026-04-29 04:13 | -3.73250 | 128.06745 | 468 ft | 152 kts | 44° |
| 2026-04-29 04:13 | -3.72500 | 128.07489 | 291 ft | 152 kts | 46° |
| 2026-04-29 04:14 | -3.71758 | 128.08243 | 61 ft | 151 kts | 46° |
| 2026-04-29 04:14 | -3.71120 | 128.08878 | 33 ft | 92 kts | 44° |
| 2026-04-29 04:14 | -3.70847 | 128.09150 | 35 ft | 28 kts | 43° |
| 2026-04-29 04:14 | -3.70751 | 128.09121 | 35 ft | 13 kts | 316° |
| 2026-04-29 04:15 | -3.70697 | 128.09063 | 36 ft | 10 kts | 298° |
| 2026-04-29 04:15 | -3.70694 | 128.08997 | 36 ft | 10 kts | 268° |
| 2026-04-29 04:15 | -3.70695 | 128.08935 | 36 ft | 8 kts | 269° |
| 2026-04-29 04:15 | -3.70675 | 128.08893 | 36 ft | 7 kts | 346° |
| 2026-04-29 04:16 | -3.70636 | 128.08893 | 36 ft | 4 kts | 1° |
| 2026-04-29 04:16 | -3.70627 | 128.08893 | 36 ft | 0 kts | 1° |